NOZ390 ENGM-ENSB
Flight info
| Callsign | NOZ390 |
|---|---|
| Flight time | 2h 39m |
| Altitude | 34000 |
| Route | RIBBE DCT OMEXA DCT SUSES |
| Aircraft | B738/M-SDGIJ1LRWY/SB1 |
Departure
| Time | 2026-05-05 17:36 |
|---|---|
| Airport | Oslo-Gardermoen International Airport (ENGM) |
Arrival
| Time | 2026-05-05 20:15 |
|---|---|
| Airport | Svalbard Airport, Longyear (ENSB) |
| Time | Latitude | Longitude | Altitude | Speed | Heading |
|---|---|---|---|---|---|
| 2026-05-05 16:10 | 60.19515 | 11.09798 | 687 ft | 0 kts | 173° |
| 2026-05-05 17:20 | 60.19538 | 11.09792 | 687 ft | 3 kts | 173° |
| 2026-05-05 17:20 | 60.19561 | 11.09787 | 687 ft | 0 kts | 173° |
| 2026-05-05 17:26 | 60.19557 | 11.09788 | 687 ft | 1 kts | 173° |
| 2026-05-05 17:26 | 60.19554 | 11.09788 | 687 ft | 0 kts | 173° |
| 2026-05-05 17:28 | 60.19552 | 11.09787 | 687 ft | 0 kts | 203° |
| 2026-05-05 17:28 | 60.19555 | 11.09770 | 687 ft | 3 kts | 327° |
| 2026-05-05 17:28 | 60.19585 | 11.09735 | 687 ft | 8 kts | 327° |
| 2026-05-05 17:28 | 60.19636 | 11.09625 | 687 ft | 11 kts | 300° |
| 2026-05-05 17:29 | 60.19660 | 11.09488 | 687 ft | 10 kts | 283° |
| 2026-05-05 17:29 | 60.19679 | 11.09354 | 687 ft | 9 kts | 287° |
| 2026-05-05 17:29 | 60.19699 | 11.09219 | 687 ft | 11 kts | 285° |
| 2026-05-05 17:29 | 60.19725 | 11.09036 | 687 ft | 14 kts | 286° |
| 2026-05-05 17:30 | 60.19756 | 11.08835 | 687 ft | 13 kts | 287° |
| 2026-05-05 17:30 | 60.19751 | 11.08684 | 687 ft | 12 kts | 233° |
| 2026-05-05 17:30 | 60.19668 | 11.08620 | 686 ft | 13 kts | 194° |
| 2026-05-05 17:30 | 60.19577 | 11.08567 | 686 ft | 14 kts | 197° |
| 2026-05-05 17:31 | 60.19479 | 11.08509 | 687 ft | 14 kts | 195° |
| 2026-05-05 17:31 | 60.19360 | 11.08441 | 686 ft | 19 kts | 195° |
| 2026-05-05 17:31 | 60.19246 | 11.08376 | 687 ft | 16 kts | 196° |
| 2026-05-05 17:31 | 60.19139 | 11.08313 | 686 ft | 15 kts | 196° |
| 2026-05-05 17:32 | 60.19032 | 11.08250 | 684 ft | 16 kts | 195° |
| 2026-05-05 17:32 | 60.18919 | 11.08184 | 679 ft | 18 kts | 196° |
| 2026-05-05 17:32 | 60.18783 | 11.08105 | 670 ft | 22 kts | 196° |
| 2026-05-05 17:32 | 60.18644 | 11.08026 | 667 ft | 18 kts | 195° |
| 2026-05-05 17:33 | 60.18524 | 11.07957 | 665 ft | 17 kts | 196° |
| 2026-05-05 17:33 | 60.18412 | 11.07892 | 666 ft | 15 kts | 196° |
| 2026-05-05 17:33 | 60.18348 | 11.07801 | 668 ft | 10 kts | 262° |
| 2026-05-05 17:33 | 60.18372 | 11.07674 | 668 ft | 11 kts | 311° |
| 2026-05-05 17:34 | 60.18436 | 11.07572 | 668 ft | 12 kts | 322° |
| 2026-05-05 17:34 | 60.18513 | 11.07454 | 668 ft | 14 kts | 328° |
| 2026-05-05 17:34 | 60.18596 | 11.07428 | 668 ft | 6 kts | 12° |
| 2026-05-05 17:34 | 60.18611 | 11.07436 | 668 ft | 0 kts | 16° |
| 2026-05-05 17:35 | 60.18797 | 11.07541 | 670 ft | 62 kts | 14° |
| 2026-05-05 17:35 | 60.19427 | 11.07906 | 673 ft | 125 kts | 16° |
| 2026-05-05 17:35 | 60.20434 | 11.08492 | 687 ft | 175 kts | 15° |
| 2026-05-05 17:36 | 60.21644 | 11.09234 | 1147 ft | 187 kts | 15° |
| 2026-05-05 17:36 | 60.22886 | 11.09971 | 1853 ft | 190 kts | 11° |
| 2026-05-05 17:36 | 60.24116 | 11.10417 | 2735 ft | 177 kts | 4° |
| 2026-05-05 17:36 | 60.25372 | 11.11044 | 3063 ft | 197 kts | 17° |
| 2026-05-05 17:37 | 60.26738 | 11.11579 | 3454 ft | 209 kts | 353° |
| 2026-05-05 17:37 | 60.28190 | 11.11010 | 3935 ft | 219 kts | 343° |
| 2026-05-05 17:37 | 60.29713 | 11.10297 | 4421 ft | 232 kts | 347° |
| 2026-05-05 17:37 | 60.31333 | 11.09718 | 4994 ft | 243 kts | 349° |
| 2026-05-05 17:38 | 60.33030 | 11.09198 | 5549 ft | 255 kts | 350° |
| 2026-05-05 17:38 | 60.34823 | 11.09066 | 6191 ft | 264 kts | 5° |
| 2026-05-05 17:38 | 60.36587 | 11.10089 | 6949 ft | 269 kts | 20° |
| 2026-05-05 17:38 | 60.38297 | 11.11653 | 7670 ft | 274 kts | 22° |
| 2026-05-05 17:39 | 60.40016 | 11.13280 | 8420 ft | 277 kts | 22° |
| 2026-05-05 17:39 | 60.41769 | 11.14881 | 9139 ft | 280 kts | 21° |
| 2026-05-05 17:39 | 60.43550 | 11.16456 | 9870 ft | 282 kts | 20° |
| 2026-05-05 17:39 | 60.45368 | 11.18039 | 10410 ft | 292 kts | 20° |
| 2026-05-05 17:40 | 60.47277 | 11.19694 | 10802 ft | 307 kts | 20° |
| 2026-05-05 17:40 | 60.49283 | 11.21433 | 11165 ft | 322 kts | 20° |
| 2026-05-05 17:40 | 60.51377 | 11.23258 | 11563 ft | 336 kts | 20° |
| 2026-05-05 17:40 | 60.53567 | 11.25173 | 11910 ft | 351 kts | 20° |
| 2026-05-05 17:41 | 60.55831 | 11.27159 | 12439 ft | 359 kts | 20° |
| 2026-05-05 17:41 | 60.58127 | 11.29178 | 13118 ft | 364 kts | 20° |
| 2026-05-05 17:41 | 60.60442 | 11.31218 | 13797 ft | 368 kts | 20° |
| 2026-05-05 17:41 | 60.62785 | 11.33287 | 14506 ft | 370 kts | 19° |
| 2026-05-05 17:42 | 60.65158 | 11.35384 | 15121 ft | 375 kts | 19° |
| 2026-05-05 17:42 | 60.67551 | 11.37502 | 15743 ft | 379 kts | 19° |
| 2026-05-05 17:42 | 60.69966 | 11.39641 | 16457 ft | 381 kts | 18° |
| 2026-05-05 17:42 | 60.72422 | 11.41704 | 16976 ft | 386 kts | 15° |
| 2026-05-05 17:43 | 60.74962 | 11.43401 | 17564 ft | 386 kts | 8° |
| 2026-05-05 17:43 | 60.77578 | 11.44438 | 18212 ft | 384 kts | 2° |
| 2026-05-05 17:43 | 60.80226 | 11.45029 | 18767 ft | 387 kts | 359° |
| 2026-05-05 17:43 | 60.82904 | 11.45391 | 19342 ft | 388 kts | 356° |
| 2026-05-05 17:44 | 60.85607 | 11.45669 | 19843 ft | 393 kts | 356° |
| 2026-05-05 17:44 | 60.88335 | 11.45932 | 20359 ft | 396 kts | 356° |
| 2026-05-05 17:44 | 60.91081 | 11.46207 | 20878 ft | 399 kts | 356° |
| 2026-05-05 17:44 | 60.93856 | 11.46503 | 21360 ft | 403 kts | 356° |
| 2026-05-05 17:45 | 60.96655 | 11.46818 | 21815 ft | 407 kts | 356° |
| 2026-05-05 17:45 | 60.99479 | 11.47148 | 22227 ft | 411 kts | 355° |
| 2026-05-05 17:45 | 61.02333 | 11.47492 | 22730 ft | 414 kts | 355° |
| 2026-05-05 17:45 | 61.05211 | 11.47844 | 23139 ft | 418 kts | 355° |
| 2026-05-05 17:46 | 61.08113 | 11.48192 | 23451 ft | 423 kts | 355° |
| 2026-05-05 17:46 | 61.11039 | 11.48389 | 23947 ft | 422 kts | 353° |
| 2026-05-05 17:46 | 61.13970 | 11.48434 | 24370 ft | 424 kts | 352° |
| 2026-05-05 17:46 | 61.16912 | 11.48409 | 24758 ft | 427 kts | 351° |
| 2026-05-05 17:47 | 61.19877 | 11.48359 | 25121 ft | 430 kts | 351° |
| 2026-05-05 17:47 | 61.22871 | 11.48314 | 25539 ft | 432 kts | 351° |
| 2026-05-05 17:47 | 61.25864 | 11.48283 | 25995 ft | 434 kts | 352° |
| 2026-05-05 17:47 | 61.28885 | 11.48258 | 26310 ft | 438 kts | 352° |
| 2026-05-05 17:48 | 61.31920 | 11.48245 | 26705 ft | 440 kts | 352° |
| 2026-05-05 17:48 | 61.34983 | 11.48241 | 27026 ft | 444 kts | 352° |
| 2026-05-05 17:48 | 61.38067 | 11.48251 | 27325 ft | 448 kts | 353° |
| 2026-05-05 17:48 | 61.41180 | 11.48427 | 27635 ft | 453 kts | 354° |
| 2026-05-05 17:49 | 61.44323 | 11.48782 | 27895 ft | 455 kts | 356° |
| 2026-05-05 17:49 | 61.47472 | 11.49224 | 28189 ft | 457 kts | 356° |
| 2026-05-05 17:49 | 61.50624 | 11.49701 | 28586 ft | 455 kts | 356° |
| 2026-05-05 17:49 | 61.53767 | 11.50182 | 28885 ft | 456 kts | 356° |
| 2026-05-05 17:50 | 61.56925 | 11.50655 | 29157 ft | 456 kts | 356° |
| 2026-05-05 17:50 | 61.60075 | 11.51113 | 29437 ft | 456 kts | 356° |
| 2026-05-05 17:50 | 61.63224 | 11.51560 | 29735 ft | 456 kts | 356° |
| 2026-05-05 17:50 | 61.66377 | 11.51999 | 30012 ft | 456 kts | 355° |
| 2026-05-05 17:51 | 61.69535 | 11.52433 | 30265 ft | 457 kts | 356° |
| 2026-05-05 17:51 | 61.72692 | 11.52860 | 30507 ft | 458 kts | 356° |
| 2026-05-05 17:51 | 61.75862 | 11.53287 | 30727 ft | 459 kts | 356° |
| 2026-05-05 17:51 | 61.79033 | 11.53714 | 31017 ft | 459 kts | 356° |
| 2026-05-05 17:52 | 61.82205 | 11.54140 | 31266 ft | 459 kts | 356° |
| 2026-05-05 17:52 | 61.85389 | 11.54565 | 31488 ft | 460 kts | 356° |
| 2026-05-05 17:52 | 61.88577 | 11.54990 | 31700 ft | 461 kts | 357° |
| 2026-05-05 17:52 | 61.91757 | 11.55417 | 31985 ft | 460 kts | 357° |
| 2026-05-05 17:53 | 61.94932 | 11.55847 | 32203 ft | 460 kts | 357° |
| 2026-05-05 17:53 | 61.98115 | 11.56278 | 32399 ft | 461 kts | 357° |
| 2026-05-05 17:53 | 62.01293 | 11.56707 | 32623 ft | 461 kts | 358° |
| 2026-05-05 17:53 | 62.04481 | 11.57139 | 32811 ft | 462 kts | 357° |
| 2026-05-05 17:54 | 62.07679 | 11.57573 | 32987 ft | 463 kts | 358° |
| 2026-05-05 17:54 | 62.10892 | 11.58010 | 33195 ft | 463 kts | 358° |
| 2026-05-05 17:54 | 62.14089 | 11.58446 | 33432 ft | 463 kts | 358° |
| 2026-05-05 17:54 | 62.17287 | 11.58885 | 33682 ft | 462 kts | 358° |
| 2026-05-05 17:55 | 62.20489 | 11.59322 | 33744 ft | 464 kts | 358° |
| 2026-05-05 17:55 | 62.26875 | 11.60202 | 33743 ft | 460 kts | 358° |
| 2026-05-05 17:56 | 62.33237 | 11.61085 | 33762 ft | 461 kts | 358° |
| 2026-05-05 17:56 | 62.39612 | 11.61968 | 33778 ft | 461 kts | 358° |
| 2026-05-05 17:57 | 62.45980 | 11.62850 | 33797 ft | 460 kts | 358° |
| 2026-05-05 17:57 | 62.52340 | 11.63739 | 33801 ft | 461 kts | 358° |
| 2026-05-05 17:58 | 62.58714 | 11.64636 | 33798 ft | 460 kts | 358° |
| 2026-05-05 17:58 | 62.65084 | 11.65534 | 33796 ft | 462 kts | 359° |
| 2026-05-05 17:59 | 62.71462 | 11.66436 | 33782 ft | 461 kts | 359° |
| 2026-05-05 17:59 | 62.77842 | 11.67344 | 33774 ft | 461 kts | 359° |
| 2026-05-05 18:00 | 62.84217 | 11.68254 | 33772 ft | 461 kts | 359° |
| 2026-05-05 18:00 | 62.90586 | 11.69170 | 33769 ft | 461 kts | 359° |
| 2026-05-05 18:01 | 62.96972 | 11.70091 | 33775 ft | 462 kts | 359° |
| 2026-05-05 18:01 | 63.03360 | 11.71014 | 33777 ft | 463 kts | 359° |
| 2026-05-05 18:02 | 63.09751 | 11.71943 | 33770 ft | 462 kts | 360° |
| 2026-05-05 18:02 | 63.16135 | 11.72873 | 33772 ft | 461 kts | 360° |
| 2026-05-05 18:03 | 63.22512 | 11.73807 | 33770 ft | 462 kts | 360° |
| 2026-05-05 18:03 | 63.28896 | 11.74748 | 33777 ft | 463 kts | 360° |
| 2026-05-05 18:04 | 63.35300 | 11.75694 | 33780 ft | 463 kts | 360° |
| 2026-05-05 18:04 | 63.41687 | 11.76643 | 33784 ft | 462 kts | 0° |
| 2026-05-05 18:05 | 63.48074 | 11.77595 | 33798 ft | 462 kts | 360° |
| 2026-05-05 18:05 | 63.54468 | 11.78550 | 33803 ft | 463 kts | 0° |
| 2026-05-05 18:06 | 63.60864 | 11.79511 | 33803 ft | 462 kts | 0° |
| 2026-05-05 18:06 | 63.67265 | 11.80479 | 33808 ft | 462 kts | 0° |
| 2026-05-05 18:07 | 63.73658 | 11.81453 | 33823 ft | 461 kts | 0° |
| 2026-05-05 18:07 | 63.80028 | 11.82426 | 33815 ft | 460 kts | 0° |
| 2026-05-05 18:08 | 63.86384 | 11.83402 | 33816 ft | 460 kts | 0° |
| 2026-05-05 18:08 | 63.92746 | 11.84381 | 33818 ft | 460 kts | 0° |
| 2026-05-05 18:09 | 63.99108 | 11.85364 | 33813 ft | 460 kts | 1° |
| 2026-05-05 18:09 | 64.05463 | 11.86351 | 33806 ft | 460 kts | 1° |
| 2026-05-05 18:10 | 64.11837 | 11.87345 | 33796 ft | 460 kts | 1° |
| 2026-05-05 18:10 | 64.18187 | 11.88340 | 33784 ft | 459 kts | 1° |
| 2026-05-05 18:11 | 64.24528 | 11.89337 | 33783 ft | 460 kts | 1° |
| 2026-05-05 18:11 | 64.30882 | 11.90339 | 33777 ft | 460 kts | 1° |
| 2026-05-05 18:12 | 64.37243 | 11.91351 | 33792 ft | 459 kts | 1° |
| 2026-05-05 18:12 | 64.43580 | 11.92368 | 33804 ft | 459 kts | 1° |
| 2026-05-05 18:13 | 64.49914 | 11.93387 | 33810 ft | 458 kts | 1° |
| 2026-05-05 18:13 | 64.56244 | 11.94407 | 33807 ft | 459 kts | 1° |
| 2026-05-05 18:14 | 64.62583 | 11.95428 | 33797 ft | 459 kts | 1° |
| 2026-05-05 18:14 | 64.68923 | 11.96456 | 33783 ft | 460 kts | 1° |
| 2026-05-05 18:15 | 64.75270 | 11.97493 | 33764 ft | 459 kts | 1° |
| 2026-05-05 18:15 | 64.81596 | 11.98535 | 33756 ft | 458 kts | 1° |
| 2026-05-05 18:16 | 64.87915 | 11.99589 | 33751 ft | 457 kts | 2° |
| 2026-05-05 18:16 | 64.94248 | 12.00649 | 33757 ft | 458 kts | 1° |
| 2026-05-05 18:17 | 65.00604 | 12.01700 | 33754 ft | 459 kts | 2° |
| 2026-05-05 18:17 | 65.06951 | 12.02753 | 33753 ft | 460 kts | 2° |
| 2026-05-05 18:18 | 65.13303 | 12.03816 | 33752 ft | 458 kts | 2° |
| 2026-05-05 18:18 | 65.19628 | 12.04883 | 33764 ft | 457 kts | 2° |
| 2026-05-05 18:19 | 65.25946 | 12.05955 | 33768 ft | 457 kts | 2° |
| 2026-05-05 18:19 | 65.32261 | 12.07029 | 33777 ft | 458 kts | 2° |
| 2026-05-05 18:20 | 65.38595 | 12.08115 | 33772 ft | 458 kts | 2° |
| 2026-05-05 18:20 | 65.44917 | 12.09206 | 33762 ft | 457 kts | 2° |
| 2026-05-05 18:21 | 65.51232 | 12.10300 | 33766 ft | 458 kts | 2° |
| 2026-05-05 18:21 | 65.57559 | 12.11397 | 33760 ft | 459 kts | 2° |
| 2026-05-05 18:22 | 65.63879 | 12.12499 | 33751 ft | 457 kts | 2° |
| 2026-05-05 18:22 | 65.70195 | 12.13606 | 33746 ft | 456 kts | 2° |
| 2026-05-05 18:23 | 65.76494 | 12.14717 | 33738 ft | 457 kts | 2° |
| 2026-05-05 18:23 | 65.82809 | 12.15838 | 33734 ft | 458 kts | 2° |
| 2026-05-05 18:24 | 65.89135 | 12.16966 | 33725 ft | 457 kts | 2° |
| 2026-05-05 18:24 | 65.95454 | 12.18099 | 33725 ft | 457 kts | 2° |
| 2026-05-05 18:25 | 66.01769 | 12.19234 | 33732 ft | 457 kts | 2° |
| 2026-05-05 18:25 | 66.08070 | 12.20373 | 33733 ft | 456 kts | 2° |
| 2026-05-05 18:26 | 66.14376 | 12.21519 | 33724 ft | 456 kts | 2° |
| 2026-05-05 18:26 | 66.20680 | 12.22671 | 33724 ft | 457 kts | 2° |
| 2026-05-05 18:27 | 66.26988 | 12.23831 | 33720 ft | 457 kts | 2° |
| 2026-05-05 18:27 | 66.33293 | 12.24995 | 33699 ft | 457 kts | 2° |
| 2026-05-05 18:28 | 66.42744 | 12.26749 | 33689 ft | 456 kts | 2° |
| 2026-05-05 18:28 | 66.49029 | 12.27922 | 33677 ft | 455 kts | 2° |
| 2026-05-05 18:29 | 66.55324 | 12.29102 | 33669 ft | 456 kts | 2° |
| 2026-05-05 18:29 | 66.61617 | 12.30290 | 33667 ft | 456 kts | 2° |
| 2026-05-05 18:30 | 66.67916 | 12.31485 | 33673 ft | 456 kts | 2° |
| 2026-05-05 18:30 | 66.74207 | 12.32684 | 33662 ft | 456 kts | 2° |
| 2026-05-05 18:31 | 66.80500 | 12.33888 | 33664 ft | 456 kts | 2° |
| 2026-05-05 18:31 | 66.86798 | 12.35101 | 33659 ft | 456 kts | 2° |
| 2026-05-05 18:32 | 66.93088 | 12.36319 | 33648 ft | 455 kts | 2° |
| 2026-05-05 18:32 | 66.99376 | 12.37541 | 33646 ft | 456 kts | 3° |
| 2026-05-05 18:33 | 67.05660 | 12.38769 | 33645 ft | 455 kts | 3° |
| 2026-05-05 18:33 | 67.11944 | 12.40004 | 33647 ft | 455 kts | 3° |
| 2026-05-05 18:34 | 67.18233 | 12.41245 | 33641 ft | 456 kts | 2° |
| 2026-05-05 18:34 | 67.24528 | 12.42494 | 33644 ft | 456 kts | 3° |
| 2026-05-05 18:35 | 67.30806 | 12.43746 | 33657 ft | 455 kts | 3° |
| 2026-05-05 18:35 | 67.37080 | 12.45006 | 33659 ft | 454 kts | 3° |
| 2026-05-05 18:36 | 67.43356 | 12.46270 | 33672 ft | 455 kts | 3° |
| 2026-05-05 18:36 | 67.49646 | 12.47544 | 33673 ft | 455 kts | 3° |
| 2026-05-05 18:37 | 67.55920 | 12.48823 | 33678 ft | 455 kts | 3° |
| 2026-05-05 18:37 | 67.62199 | 12.50110 | 33678 ft | 455 kts | 3° |
| 2026-05-05 18:38 | 67.68497 | 12.51408 | 33681 ft | 454 kts | 3° |
| 2026-05-05 18:38 | 67.74762 | 12.52705 | 33688 ft | 454 kts | 3° |
| 2026-05-05 18:39 | 67.81052 | 12.54015 | 33681 ft | 454 kts | 3° |
| 2026-05-05 18:39 | 67.87322 | 12.55328 | 33688 ft | 455 kts | 3° |
| 2026-05-05 18:40 | 67.93589 | 12.56646 | 33699 ft | 454 kts | 3° |
| 2026-05-05 18:40 | 67.99862 | 12.57972 | 33697 ft | 454 kts | 3° |
| 2026-05-05 18:41 | 68.06122 | 12.59306 | 33699 ft | 454 kts | 3° |
| 2026-05-05 18:41 | 68.12380 | 12.60644 | 33703 ft | 453 kts | 3° |
| 2026-05-05 18:42 | 68.18638 | 12.61991 | 33699 ft | 453 kts | 3° |
| 2026-05-05 18:42 | 68.24900 | 12.63345 | 33697 ft | 454 kts | 3° |
| 2026-05-05 18:43 | 68.31153 | 12.64704 | 33703 ft | 453 kts | 3° |
| 2026-05-05 18:43 | 68.37407 | 12.66071 | 33703 ft | 453 kts | 4° |
| 2026-05-05 18:44 | 68.43651 | 12.67445 | 33708 ft | 452 kts | 4° |
| 2026-05-05 18:44 | 68.49905 | 12.68827 | 33711 ft | 452 kts | 4° |
| 2026-05-05 18:45 | 68.56136 | 12.70212 | 33712 ft | 452 kts | 4° |
| 2026-05-05 18:45 | 68.62376 | 12.71607 | 33709 ft | 452 kts | 4° |
| 2026-05-05 18:46 | 68.68618 | 12.73011 | 33708 ft | 452 kts | 4° |
| 2026-05-05 18:46 | 68.74862 | 12.74421 | 33713 ft | 452 kts | 4° |
| 2026-05-05 18:47 | 68.81081 | 12.75834 | 33714 ft | 450 kts | 4° |
| 2026-05-05 18:47 | 68.87288 | 12.77253 | 33717 ft | 450 kts | 5° |
| 2026-05-05 18:48 | 68.93503 | 12.78681 | 33708 ft | 451 kts | 5° |
| 2026-05-05 18:48 | 68.99726 | 12.80120 | 33704 ft | 452 kts | 5° |
| 2026-05-05 18:49 | 69.05950 | 12.81444 | 33704 ft | 451 kts | 4° |
| 2026-05-05 18:49 | 69.12177 | 12.82419 | 33708 ft | 451 kts | 3° |
| 2026-05-05 18:50 | 69.18403 | 12.83319 | 33706 ft | 451 kts | 3° |
| 2026-05-05 18:50 | 69.24634 | 12.84247 | 33708 ft | 450 kts | 3° |
| 2026-05-05 18:51 | 69.30857 | 12.85207 | 33707 ft | 451 kts | 3° |
| 2026-05-05 18:51 | 69.37081 | 12.86191 | 33715 ft | 450 kts | 3° |
| 2026-05-05 18:52 | 69.43301 | 12.87188 | 33722 ft | 451 kts | 3° |
| 2026-05-05 18:52 | 69.49271 | 12.88155 | 33732 ft | 451 kts | 3° |
| 2026-05-05 18:53 | 69.55409 | 12.89156 | 33731 ft | 450 kts | 3° |
| 2026-05-05 18:53 | 69.61632 | 12.90177 | 33725 ft | 450 kts | 3° |
| 2026-05-05 18:54 | 69.67847 | 12.91202 | 33729 ft | 450 kts | 3° |
| 2026-05-05 18:54 | 69.74058 | 12.92233 | 33732 ft | 450 kts | 3° |
| 2026-05-05 18:55 | 69.80271 | 12.93270 | 33736 ft | 450 kts | 3° |
| 2026-05-05 18:55 | 69.86489 | 12.94314 | 33733 ft | 451 kts | 3° |
| 2026-05-05 18:56 | 69.92701 | 12.95363 | 33736 ft | 449 kts | 3° |
| 2026-05-05 18:56 | 69.98907 | 12.96417 | 33745 ft | 449 kts | 3° |
| 2026-05-05 18:57 | 70.05103 | 12.97476 | 33742 ft | 449 kts | 3° |
| 2026-05-05 18:57 | 70.11305 | 12.98541 | 33749 ft | 448 kts | 3° |
| 2026-05-05 18:58 | 70.17492 | 12.99611 | 33758 ft | 448 kts | 3° |
| 2026-05-05 18:58 | 70.23676 | 13.00686 | 33755 ft | 448 kts | 3° |
| 2026-05-05 18:59 | 70.29853 | 13.01766 | 33765 ft | 448 kts | 3° |
| 2026-05-05 18:59 | 70.36039 | 13.02856 | 33762 ft | 447 kts | 3° |
| 2026-05-05 19:00 | 70.42230 | 13.03952 | 33770 ft | 447 kts | 3° |
| 2026-05-05 19:00 | 70.48410 | 13.05053 | 33769 ft | 446 kts | 3° |
| 2026-05-05 19:01 | 70.54575 | 13.06157 | 33766 ft | 446 kts | 4° |
| 2026-05-05 19:01 | 70.60748 | 13.07271 | 33760 ft | 447 kts | 3° |
| 2026-05-05 19:02 | 70.66920 | 13.08391 | 33769 ft | 447 kts | 4° |
| 2026-05-05 19:02 | 70.73092 | 13.09517 | 33776 ft | 447 kts | 4° |
| 2026-05-05 19:03 | 70.79253 | 13.10648 | 33778 ft | 446 kts | 4° |
| 2026-05-05 19:03 | 70.85410 | 13.11785 | 33780 ft | 446 kts | 4° |
| 2026-05-05 19:04 | 70.91556 | 13.12927 | 33781 ft | 445 kts | 4° |
| 2026-05-05 19:04 | 70.97713 | 13.14079 | 33782 ft | 445 kts | 4° |
| 2026-05-05 19:05 | 71.03862 | 13.15237 | 33780 ft | 446 kts | 4° |
| 2026-05-05 19:05 | 71.10027 | 13.16406 | 33781 ft | 446 kts | 4° |
| 2026-05-05 19:06 | 71.16194 | 13.17583 | 33781 ft | 446 kts | 4° |
| 2026-05-05 19:06 | 71.22348 | 13.18763 | 33793 ft | 446 kts | 4° |
| 2026-05-05 19:07 | 71.28517 | 13.19953 | 33800 ft | 446 kts | 4° |
| 2026-05-05 19:07 | 71.34680 | 13.21150 | 33796 ft | 446 kts | 4° |
| 2026-05-05 19:08 | 71.40844 | 13.22355 | 33807 ft | 446 kts | 4° |
| 2026-05-05 19:08 | 71.47008 | 13.23567 | 33812 ft | 446 kts | 4° |
| 2026-05-05 19:09 | 71.53164 | 13.24785 | 33817 ft | 446 kts | 4° |
| 2026-05-05 19:09 | 71.59321 | 13.26012 | 33824 ft | 446 kts | 4° |
| 2026-05-05 19:10 | 71.65487 | 13.27249 | 33825 ft | 446 kts | 4° |
| 2026-05-05 19:10 | 71.71671 | 13.28498 | 33825 ft | 446 kts | 4° |
| 2026-05-05 19:11 | 71.77832 | 13.29751 | 33826 ft | 446 kts | 4° |
| 2026-05-05 19:11 | 71.83992 | 13.31011 | 33828 ft | 446 kts | 4° |
| 2026-05-05 19:12 | 71.90148 | 13.32277 | 33827 ft | 446 kts | 4° |
| 2026-05-05 19:12 | 71.96321 | 13.33555 | 33833 ft | 446 kts | 4° |
| 2026-05-05 19:13 | 72.02490 | 13.34841 | 33837 ft | 446 kts | 4° |
| 2026-05-05 19:13 | 72.08647 | 13.36133 | 33842 ft | 446 kts | 4° |
| 2026-05-05 19:14 | 72.14803 | 13.37436 | 33853 ft | 446 kts | 4° |
| 2026-05-05 19:14 | 72.20975 | 13.38750 | 33854 ft | 446 kts | 4° |
| 2026-05-05 19:15 | 72.27129 | 13.40067 | 33854 ft | 446 kts | 4° |
| 2026-05-05 19:15 | 72.33285 | 13.41393 | 33851 ft | 446 kts | 4° |
| 2026-05-05 19:16 | 72.39439 | 13.42729 | 33858 ft | 445 kts | 4° |
| 2026-05-05 19:16 | 72.45587 | 13.44073 | 33853 ft | 445 kts | 4° |
| 2026-05-05 19:17 | 72.51736 | 13.45427 | 33857 ft | 446 kts | 4° |
| 2026-05-05 19:17 | 72.57916 | 13.46795 | 33865 ft | 445 kts | 4° |
| 2026-05-05 19:18 | 72.64083 | 13.48171 | 33868 ft | 446 kts | 4° |
| 2026-05-05 19:18 | 72.70251 | 13.49557 | 33925 ft | 448 kts | 4° |
| 2026-05-05 19:19 | 72.73348 | 13.50256 | 34178 ft | 447 kts | 4° |
| 2026-05-05 19:19 | 72.76438 | 13.50955 | 34419 ft | 447 kts | 4° |
| 2026-05-05 19:19 | 72.79549 | 13.51662 | 34629 ft | 448 kts | 4° |
| 2026-05-05 19:19 | 72.82642 | 13.52368 | 34864 ft | 447 kts | 4° |
| 2026-05-05 19:20 | 72.85727 | 13.53073 | 35065 ft | 447 kts | 4° |
| 2026-05-05 19:20 | 72.88829 | 13.53784 | 35256 ft | 448 kts | 4° |
| 2026-05-05 19:20 | 72.91921 | 13.54496 | 35445 ft | 448 kts | 4° |
| 2026-05-05 19:20 | 72.95017 | 13.55212 | 35619 ft | 449 kts | 4° |
| 2026-05-05 19:21 | 72.98121 | 13.55932 | 35792 ft | 449 kts | 4° |
| 2026-05-05 19:21 | 73.01233 | 13.56656 | 35888 ft | 451 kts | 4° |
| 2026-05-05 19:21 | 73.07479 | 13.58119 | 35895 ft | 450 kts | 4° |
| 2026-05-05 19:22 | 73.13685 | 13.59582 | 35901 ft | 448 kts | 4° |
| 2026-05-05 19:22 | 73.19872 | 13.61051 | 35902 ft | 449 kts | 4° |
| 2026-05-05 19:23 | 73.26068 | 13.62535 | 35910 ft | 449 kts | 4° |
| 2026-05-05 19:23 | 73.32268 | 13.64028 | 35910 ft | 449 kts | 4° |
| 2026-05-05 19:24 | 73.38529 | 13.65546 | 35918 ft | 449 kts | 5° |
| 2026-05-05 19:24 | 73.44716 | 13.67058 | 35917 ft | 448 kts | 5° |
| 2026-05-05 19:25 | 73.50900 | 13.68582 | 35924 ft | 448 kts | 5° |
| 2026-05-05 19:25 | 73.57088 | 13.70118 | 35929 ft | 448 kts | 5° |
| 2026-05-05 19:26 | 73.63267 | 13.71662 | 35928 ft | 448 kts | 5° |
| 2026-05-05 19:26 | 73.69458 | 13.73219 | 35932 ft | 449 kts | 5° |
| 2026-05-05 19:27 | 73.75651 | 13.74789 | 35937 ft | 448 kts | 5° |
| 2026-05-05 19:27 | 73.81827 | 13.76366 | 35938 ft | 448 kts | 5° |
| 2026-05-05 19:28 | 73.88007 | 13.77958 | 35939 ft | 448 kts | 5° |
| 2026-05-05 19:28 | 73.94183 | 13.79560 | 35942 ft | 448 kts | 5° |
| 2026-05-05 19:29 | 74.00356 | 13.81171 | 35942 ft | 448 kts | 5° |
| 2026-05-05 19:29 | 74.06538 | 13.82797 | 35956 ft | 448 kts | 5° |
| 2026-05-05 19:30 | 74.12734 | 13.84440 | 35958 ft | 448 kts | 5° |
| 2026-05-05 19:30 | 74.18924 | 13.86094 | 35961 ft | 448 kts | 5° |
| 2026-05-05 19:31 | 74.25115 | 13.87760 | 35959 ft | 448 kts | 5° |
| 2026-05-05 19:31 | 74.31289 | 13.89435 | 35968 ft | 448 kts | 5° |
| 2026-05-05 19:32 | 74.37467 | 13.91123 | 35970 ft | 448 kts | 5° |
| 2026-05-05 19:32 | 74.43648 | 13.92824 | 35975 ft | 448 kts | 5° |
| 2026-05-05 19:33 | 74.56005 | 13.96267 | 35983 ft | 449 kts | 5° |
| 2026-05-05 19:35 | 74.71744 | 14.00732 | 35994 ft | 448 kts | 5° |
| 2026-05-05 19:35 | 74.77927 | 14.02509 | 35997 ft | 449 kts | 5° |
| 2026-05-05 19:36 | 74.84038 | 14.04279 | 36003 ft | 448 kts | 5° |
| 2026-05-05 19:36 | 74.90219 | 14.06084 | 35997 ft | 449 kts | 5° |
| 2026-05-05 19:37 | 74.96403 | 14.07905 | 36000 ft | 448 kts | 5° |
| 2026-05-05 19:37 | 75.02594 | 14.09744 | 36007 ft | 449 kts | 5° |
| 2026-05-05 19:38 | 75.08782 | 14.11596 | 36008 ft | 448 kts | 5° |
| 2026-05-05 19:38 | 75.14958 | 14.13458 | 36016 ft | 448 kts | 5° |
| 2026-05-05 19:39 | 75.21147 | 14.15340 | 36020 ft | 449 kts | 5° |
| 2026-05-05 19:39 | 75.27338 | 14.17238 | 36017 ft | 449 kts | 5° |
| 2026-05-05 19:40 | 75.33521 | 14.19149 | 36029 ft | 448 kts | 5° |
| 2026-05-05 19:40 | 75.39705 | 14.21002 | 36031 ft | 449 kts | 4° |
| 2026-05-05 19:41 | 75.45928 | 14.20725 | 36042 ft | 450 kts | 358° |
| 2026-05-05 19:41 | 75.52169 | 14.19119 | 36050 ft | 450 kts | 357° |
| 2026-05-05 19:42 | 75.58374 | 14.17471 | 36049 ft | 450 kts | 357° |
| 2026-05-05 19:42 | 75.64588 | 14.16016 | 36054 ft | 450 kts | 358° |
| 2026-05-05 19:43 | 75.70805 | 14.14695 | 36059 ft | 450 kts | 358° |
| 2026-05-05 19:43 | 75.77020 | 14.13438 | 36069 ft | 450 kts | 358° |
| 2026-05-05 19:44 | 75.83235 | 14.12200 | 36073 ft | 450 kts | 358° |
| 2026-05-05 19:44 | 75.89438 | 14.10961 | 36077 ft | 450 kts | 358° |
| 2026-05-05 19:45 | 75.95640 | 14.09715 | 36080 ft | 449 kts | 358° |
| 2026-05-05 19:45 | 76.01847 | 14.08458 | 36093 ft | 449 kts | 358° |
| 2026-05-05 19:46 | 76.08056 | 14.07190 | 36089 ft | 450 kts | 358° |
| 2026-05-05 19:46 | 76.14275 | 14.05906 | 36091 ft | 450 kts | 358° |
| 2026-05-05 19:47 | 76.20508 | 14.04606 | 36094 ft | 449 kts | 358° |
| 2026-05-05 19:47 | 76.26749 | 14.03295 | 36097 ft | 449 kts | 358° |
| 2026-05-05 19:48 | 76.32973 | 14.01975 | 36095 ft | 449 kts | 358° |
| 2026-05-05 19:48 | 76.39184 | 14.00648 | 36099 ft | 449 kts | 358° |
| 2026-05-05 19:49 | 76.45400 | 13.99309 | 36060 ft | 450 kts | 358° |
| 2026-05-05 19:49 | 76.48531 | 13.98631 | 35854 ft | 451 kts | 358° |
| 2026-05-05 19:49 | 76.51645 | 13.97952 | 35653 ft | 448 kts | 358° |
| 2026-05-05 19:49 | 76.54731 | 13.97276 | 35452 ft | 444 kts | 358° |
| 2026-05-05 19:50 | 76.57793 | 13.96601 | 35255 ft | 444 kts | 358° |
| 2026-05-05 19:50 | 76.60865 | 13.95923 | 35050 ft | 444 kts | 358° |
| 2026-05-05 19:50 | 76.63933 | 13.95243 | 34838 ft | 444 kts | 358° |
| 2026-05-05 19:50 | 76.67013 | 13.94558 | 34316 ft | 446 kts | 358° |
| 2026-05-05 19:51 | 76.70094 | 13.93870 | 33654 ft | 449 kts | 359° |
| 2026-05-05 19:51 | 76.73207 | 13.93173 | 33006 ft | 453 kts | 359° |
| 2026-05-05 19:51 | 76.76360 | 13.92464 | 32497 ft | 452 kts | 358° |
| 2026-05-05 19:51 | 76.79458 | 13.91759 | 32056 ft | 444 kts | 358° |
| 2026-05-05 19:52 | 76.82482 | 13.91062 | 31687 ft | 436 kts | 358° |
| 2026-05-05 19:52 | 76.85482 | 13.90370 | 31292 ft | 433 kts | 358° |
| 2026-05-05 19:52 | 76.88459 | 13.89684 | 30883 ft | 431 kts | 358° |
| 2026-05-05 19:52 | 76.91420 | 13.88999 | 30406 ft | 427 kts | 359° |
| 2026-05-05 19:53 | 76.94343 | 13.88321 | 29901 ft | 422 kts | 358° |
| 2026-05-05 19:53 | 76.97230 | 13.87647 | 29359 ft | 416 kts | 359° |
| 2026-05-05 19:53 | 77.00086 | 13.86977 | 28788 ft | 412 kts | 358° |
| 2026-05-05 19:53 | 77.02931 | 13.86308 | 28202 ft | 406 kts | 359° |
| 2026-05-05 19:54 | 77.05728 | 13.85645 | 27602 ft | 397 kts | 359° |
| 2026-05-05 19:54 | 77.08434 | 13.85001 | 27043 ft | 387 kts | 358° |
| 2026-05-05 19:54 | 77.11083 | 13.84367 | 26452 ft | 378 kts | 359° |
| 2026-05-05 19:54 | 77.13668 | 13.83748 | 25833 ft | 370 kts | 359° |
| 2026-05-05 19:55 | 77.16194 | 13.83141 | 25204 ft | 363 kts | 359° |
| 2026-05-05 19:55 | 77.18673 | 13.82542 | 24539 ft | 356 kts | 359° |
| 2026-05-05 19:55 | 77.21099 | 13.81953 | 23957 ft | 347 kts | 359° |
| 2026-05-05 19:55 | 77.23462 | 13.81376 | 23463 ft | 338 kts | 359° |
| 2026-05-05 19:56 | 77.25779 | 13.80813 | 23039 ft | 335 kts | 359° |
| 2026-05-05 19:56 | 77.28085 | 13.80256 | 22589 ft | 333 kts | 359° |
| 2026-05-05 19:56 | 77.30375 | 13.79702 | 22156 ft | 330 kts | 360° |
| 2026-05-05 19:56 | 77.32647 | 13.79149 | 21733 ft | 328 kts | 360° |
| 2026-05-05 19:57 | 77.34900 | 13.78596 | 21305 ft | 325 kts | 360° |
| 2026-05-05 19:57 | 77.37135 | 13.78042 | 20884 ft | 323 kts | 0° |
| 2026-05-05 19:57 | 77.39352 | 13.77489 | 20459 ft | 320 kts | 0° |
| 2026-05-05 19:57 | 77.41550 | 13.76939 | 20047 ft | 317 kts | 0° |
| 2026-05-05 19:58 | 77.43727 | 13.76389 | 19615 ft | 314 kts | 0° |
| 2026-05-05 19:58 | 77.45879 | 13.75846 | 19218 ft | 310 kts | 0° |
| 2026-05-05 19:58 | 77.48008 | 13.75313 | 18817 ft | 307 kts | 0° |
| 2026-05-05 19:58 | 77.50121 | 13.74788 | 18390 ft | 305 kts | 0° |
| 2026-05-05 19:59 | 77.52223 | 13.74263 | 17977 ft | 303 kts | 0° |
| 2026-05-05 19:59 | 77.54315 | 13.73737 | 17554 ft | 303 kts | 0° |
| 2026-05-05 19:59 | 77.56393 | 13.73210 | 17146 ft | 300 kts | 0° |
| 2026-05-05 19:59 | 77.58459 | 13.72678 | 16735 ft | 298 kts | 0° |
| 2026-05-05 20:00 | 77.60512 | 13.72146 | 16331 ft | 297 kts | 0° |
| 2026-05-05 20:00 | 77.62555 | 13.71621 | 15912 ft | 295 kts | 0° |
| 2026-05-05 20:00 | 77.64592 | 13.71097 | 15428 ft | 295 kts | 0° |
| 2026-05-05 20:00 | 77.66631 | 13.70572 | 14948 ft | 295 kts | 0° |
| 2026-05-05 20:01 | 77.68662 | 13.70046 | 14496 ft | 294 kts | 0° |
| 2026-05-05 20:01 | 77.70680 | 13.69517 | 14091 ft | 291 kts | 0° |
| 2026-05-05 20:01 | 77.72677 | 13.68993 | 13686 ft | 288 kts | 0° |
| 2026-05-05 20:01 | 77.74661 | 13.68470 | 13284 ft | 286 kts | 0° |
| 2026-05-05 20:02 | 77.76627 | 13.67947 | 12884 ft | 284 kts | 0° |
| 2026-05-05 20:02 | 77.78578 | 13.67430 | 12478 ft | 282 kts | 0° |
| 2026-05-05 20:02 | 77.80518 | 13.66914 | 12069 ft | 280 kts | 0° |
| 2026-05-05 20:02 | 77.82445 | 13.66401 | 11669 ft | 278 kts | 0° |
| 2026-05-05 20:03 | 77.84363 | 13.65892 | 11270 ft | 277 kts | 0° |
| 2026-05-05 20:03 | 77.86268 | 13.65382 | 10868 ft | 275 kts | 0° |
| 2026-05-05 20:03 | 77.88164 | 13.64875 | 10465 ft | 274 kts | 0° |
| 2026-05-05 20:03 | 77.90052 | 13.64367 | 10059 ft | 273 kts | 0° |
| 2026-05-05 20:04 | 77.91921 | 13.63858 | 9639 ft | 268 kts | 0° |
| 2026-05-05 20:04 | 77.93745 | 13.63358 | 9272 ft | 260 kts | 0° |
| 2026-05-05 20:04 | 77.95523 | 13.62870 | 8928 ft | 257 kts | 1° |
| 2026-05-05 20:04 | 77.97283 | 13.62392 | 8640 ft | 252 kts | 1° |
| 2026-05-05 20:05 | 77.99012 | 13.61921 | 8366 ft | 248 kts | 1° |
| 2026-05-05 20:05 | 78.00710 | 13.61458 | 8102 ft | 245 kts | 1° |
| 2026-05-05 20:05 | 78.02396 | 13.60996 | 7830 ft | 243 kts | 1° |
| 2026-05-05 20:05 | 78.04075 | 13.60534 | 7573 ft | 242 kts | 2° |
| 2026-05-05 20:06 | 78.05734 | 13.60807 | 7304 ft | 237 kts | 15° |
| 2026-05-05 20:06 | 78.07207 | 13.63894 | 7051 ft | 231 kts | 39° |
| 2026-05-05 20:06 | 78.08417 | 13.68869 | 6820 ft | 228 kts | 43° |
| 2026-05-05 20:06 | 78.09597 | 13.73914 | 6555 ft | 226 kts | 42° |
| 2026-05-05 20:07 | 78.10775 | 13.78785 | 6328 ft | 221 kts | 41° |
| 2026-05-05 20:07 | 78.11934 | 13.83501 | 6119 ft | 216 kts | 41° |
| 2026-05-05 20:07 | 78.13072 | 13.88123 | 5913 ft | 212 kts | 41° |
| 2026-05-05 20:07 | 78.14191 | 13.92655 | 5702 ft | 208 kts | 41° |
| 2026-05-05 20:08 | 78.15292 | 13.97125 | 5491 ft | 206 kts | 41° |
| 2026-05-05 20:08 | 78.16384 | 14.01575 | 5279 ft | 206 kts | 41° |
| 2026-05-05 20:08 | 78.17473 | 14.06055 | 5066 ft | 207 kts | 41° |
| 2026-05-05 20:08 | 78.18565 | 14.10551 | 4874 ft | 205 kts | 40° |
| 2026-05-05 20:09 | 78.19658 | 14.15038 | 4703 ft | 206 kts | 40° |
| 2026-05-05 20:09 | 78.20746 | 14.19538 | 4561 ft | 205 kts | 40° |
| 2026-05-05 20:09 | 78.21838 | 14.24075 | 4435 ft | 207 kts | 40° |
| 2026-05-05 20:09 | 78.22933 | 14.28639 | 4288 ft | 207 kts | 40° |
| 2026-05-05 20:10 | 78.24026 | 14.33200 | 4133 ft | 207 kts | 40° |
| 2026-05-05 20:10 | 78.25122 | 14.37784 | 4015 ft | 208 kts | 40° |
| 2026-05-05 20:10 | 78.26220 | 14.42396 | 3873 ft | 208 kts | 40° |
| 2026-05-05 20:10 | 78.27313 | 14.46988 | 3731 ft | 207 kts | 40° |
| 2026-05-05 20:11 | 78.28393 | 14.51653 | 3596 ft | 208 kts | 44° |
| 2026-05-05 20:11 | 78.29219 | 14.57405 | 3496 ft | 208 kts | 68° |
| 2026-05-05 20:11 | 78.29314 | 14.64349 | 3341 ft | 206 kts | 100° |
| 2026-05-05 20:11 | 78.28776 | 14.70763 | 3225 ft | 201 kts | 109° |
| 2026-05-05 20:12 | 78.28327 | 14.77227 | 2924 ft | 201 kts | 100° |
| 2026-05-05 20:12 | 78.28032 | 14.83803 | 2647 ft | 192 kts | 99° |
| 2026-05-05 20:12 | 78.27708 | 14.90103 | 2323 ft | 189 kts | 102° |
| 2026-05-05 20:12 | 78.27374 | 14.96187 | 2074 ft | 176 kts | 102° |
| 2026-05-05 20:13 | 78.27076 | 15.01724 | 1782 ft | 162 kts | 102° |
| 2026-05-05 20:13 | 78.26813 | 15.06610 | 1629 ft | 149 kts | 102° |
| 2026-05-05 20:13 | 78.26547 | 15.11541 | 1373 ft | 149 kts | 102° |
| 2026-05-05 20:13 | 78.26279 | 15.16445 | 1158 ft | 148 kts | 103° |
| 2026-05-05 20:14 | 78.26013 | 15.21291 | 941 ft | 147 kts | 103° |
| 2026-05-05 20:14 | 78.25748 | 15.26119 | 729 ft | 146 kts | 104° |
| 2026-05-05 20:14 | 78.25486 | 15.30887 | 521 ft | 144 kts | 104° |
| 2026-05-05 20:14 | 78.25233 | 15.35610 | 333 ft | 142 kts | 105° |
| 2026-05-05 20:15 | 78.24969 | 15.40225 | 132 ft | 140 kts | 105° |
| 2026-05-05 20:15 | 78.24721 | 15.44571 | 6 ft | 104 kts | 105° |
| 2026-05-05 20:15 | 78.24579 | 15.47196 | 5 ft | 58 kts | 103° |
| 2026-05-05 20:15 | 78.24523 | 15.48183 | 5 ft | 12 kts | 104° |
| 2026-05-05 20:16 | 78.24508 | 15.48464 | 5 ft | 7 kts | 103° |
| 2026-05-05 20:16 | 78.24498 | 15.48663 | 5 ft | 4 kts | 104° |
| 2026-05-05 20:16 | 78.24491 | 15.48790 | 5 ft | 5 kts | 105° |
| 2026-05-05 20:16 | 78.24477 | 15.49014 | 5 ft | 7 kts | 105° |
| 2026-05-05 20:17 | 78.24463 | 15.49289 | 5 ft | 3 kts | 83° |
| 2026-05-05 20:17 | 78.24483 | 15.49379 | 5 ft | 6 kts | 39° |
| 2026-05-05 20:17 | 78.24535 | 15.49481 | 5 ft | 9 kts | 358° |
| 2026-05-05 20:17 | 78.24593 | 15.49340 | 5 ft | 9 kts | 319° |
| 2026-05-05 20:18 | 78.24639 | 15.49091 | 5 ft | 10 kts | 301° |
| 2026-05-05 20:18 | 78.24649 | 15.48963 | 5 ft | 1 kts | 285° |
| 2026-05-05 20:18 | 78.24650 | 15.48949 | 5 ft | 0 kts | 284° |